Time;durP1;ratioP1;P1;durP2;ratioP2;P2;SDS_P1;SDS_P2;PMS_P1;PMS_P2;Temp;Humidity;BMP_temperature;BMP_pressure;BME280_temperature;BME280_humidity;BME280_pressure;Samples;Min_cycle;Max_cycle;Signal;HPM_P1;HPM_P2
2022/12/05 00:00:26;;;;;;;17.80;6.10;;;;;;;-1.98;89.10;102299.70;123122;1102;104277;-78
2022/12/05 00:03:10;;;;;;;14.47;5.77;;;;;;;-1.99;88.86;102303.03;123178;1102;104415;-77
2022/12/05 00:05:43;;;;;;;15.93;6.40;;;;;;;-1.99;89.88;102305.61;123102;1102;104248;-77
2022/12/05 00:08:14;;;;;;;14.30;5.40;;;;;;;-2.01;89.32;102300.28;123271;1102;104383;-78
2022/12/05 00:10:45;;;;;;;19.00;8.37;;;;;;;-2.03;88.66;102293.12;123113;1102;104412;-78
2022/12/05 00:13:16;;;;;;;18.00;7.00;;;;;;;-2.03;89.01;102295.70;123087;1102;104251;-78
2022/12/05 00:15:47;;;;;;;17.13;6.80;;;;;;;-2.03;89.72;102295.70;123155;1102;104359;-76
2022/12/05 00:18:18;;;;;;;18.40;6.77;;;;;;;-2.02;89.80;102297.53;123075;1102;104248;-78
2022/12/05 00:20:50;;;;;;;17.03;6.53;;;;;;;-2.03;88.61;102293.12;123112;1101;104296;-79
2022/12/05 00:23:21;;;;;;;17.47;6.90;;;;;;;-2.04;88.70;102297.36;123102;1102;104361;-78
2022/12/05 00:25:54;;;;;;;18.97;7.17;;;;;;;-2.04;88.71;102296.42;123080;1102;104219;-77
2022/12/05 00:28:27;;;;;;;18.83;7.20;;;;;;;-2.05;89.58;102292.95;123016;1102;104399;-78
2022/12/05 00:31:01;;;;;;;17.93;7.80;;;;;;;-2.08;88.18;102295.16;123069;1102;104248;-79
2022/12/05 00:33:33;;;;;;;18.30;8.03;;;;;;;-2.08;88.75;102290.02;123092;1102;104242;-78
2022/12/05 00:36:07;;;;;;;18.13;7.70;;;;;;;-2.09;88.19;102292.42;123116;1102;104400;-78
2022/12/05 00:38:40;;;;;;;17.00;6.83;;;;;;;-2.14;88.45;102284.17;123190;1102;104332;-78
2022/12/05 00:41:13;;;;;;;22.13;7.87;;;;;;;-2.14;89.29;102283.27;123128;1102;104251;-79
2022/12/05 00:43:45;;;;;;;20.02;7.50;;;;;;;-2.16;89.16;102285.66;123071;1102;105560;-78
2022/12/05 00:46:19;;;;;;;16.53;6.57;;;;;;;-2.15;88.84;102286.56;123103;1102;104288;-78
2022/12/05 00:48:49;;;;;;;;;;;;;;;-2.14;88.47;102283.27;123228;1102;104198;-78
2022/12/05 00:51:23;;;;;;;19.40;7.00;;;;;;;-2.14;89.74;102285.84;123110;1102;104255;-78
2022/12/05 00:53:54;;;;;;;19.20;6.77;;;;;;;-2.15;88.56;102292.65;123051;1102;104399;-79
2022/12/05 00:56:27;;;;;;;17.27;6.23;;;;;;;-2.15;88.58;102286.56;123170;1101;104251;-78
2022/12/05 00:59:00;;;;;;;21.10;7.37;;;;;;;-2.14;89.02;102286.73;123069;1102;104264;-78
2022/12/05 01:01:33;;;;;;;15.27;6.90;;;;;;;-2.13;88.78;102280.87;123211;1102;104268;-78
2022/12/05 01:04:08;;;;;;;17.77;6.37;;;;;;;-2.09;88.86;102282.13;123210;1102;104325;-78
2022/12/05 01:06:40;;;;;;;18.03;6.83;;;;;;;-2.08;88.38;102281.40;123468;1102;104222;-78
2022/12/05 01:09:14;;;;;;;19.20;7.00;;;;;;;-2.06;89.04;102285.95;123314;1102;104329;-78
2022/12/05 01:11:46;;;;;;;18.47;6.80;;;;;;;-2.05;89.58;102282.66;123446;1102;104230;-78
2022/12/05 01:14:19;;;;;;;19.67;6.67;;;;;;;-2.05;88.93;102280.08;123253;1102;104686;-78
2022/12/05 01:16:52;;;;;;;17.00;6.78;;;;;;;-2.04;89.14;102276.78;123072;1102;104357;-78
2022/12/05 01:19:25;;;;;;;20.87;6.63;;;;;;;-2.05;88.41;102280.08;123117;1102;104354;-78
2022/12/05 01:21:57;;;;;;;20.43;7.20;;;;;;;-2.08;88.76;102279.73;123168;1102;104287;-78
2022/12/05 01:24:29;;;;;;;17.77;6.60;;;;;;;-2.07;89.30;102276.42;123108;1102;105694;-78
2022/12/05 01:27:00;;;;;;;17.80;6.50;;;;;;;-2.07;88.59;102276.42;123086;1102;104562;-78
2022/12/05 01:29:32;;;;;;;19.20;6.60;;;;;;;-2.07;89.09;102272.91;123036;1102;104769;-78
2022/12/05 01:32:03;;;;;;;15.30;6.47;;;;;;;-2.05;89.28;102274.94;123112;1102;104373;-78
2022/12/05 01:34:34;;;;;;;20.33;6.53;;;;;;;-2.07;89.69;102275.48;123093;1102;104389;-78
2022/12/05 01:37:05;;;;;;;18.37;6.60;;;;;;;-2.10;87.94;102267.42;123037;1102;104283;-78
2022/12/05 01:39:36;;;;;;;17.63;6.83;;;;;;;-2.11;88.22;102274.23;123042;1102;104277;-78
2022/12/05 01:42:07;;;;;;;17.40;6.00;;;;;;;-2.12;88.89;102268.91;123173;1102;104290;-78
2022/12/05 01:45:05;;;;;;;16.35;6.40;;;;;;;-2.14;87.87;102268.73;123088;1102;104325;-78
2022/12/05 01:47:37;;;;;;;17.10;6.73;;;;;;;-2.17;88.92;102269.33;123078;1102;104248;-78
2022/12/05 01:50:12;;;;;;;20.83;6.70;;;;;;;-2.16;88.33;102267.66;122985;1102;104358;-77
2022/12/05 01:52:50;;;;;;;16.43;5.77;;;;;;;-2.18;88.12;102262.33;123075;1102;104351;-78
2022/12/05 01:55:24;;;;;;;19.83;6.10;;;;;;;-2.21;89.30;102261.08;123129;1102;104226;-78
2022/12/05 01:57:59;;;;;;;20.10;6.75;;;;;;;-2.22;88.91;102255.00;123164;1102;104256;-79
2022/12/05 02:00:30;;;;;;;18.75;7.37;;;;;;;-2.25;87.81;102262.36;123090;1102;104329;-78
2022/12/05 02:03:05;;;;;;;15.13;6.20;;;;;;;-2.28;88.37;102254.29;123106;1102;104235;-78
2022/12/05 02:05:38;;;;;;;18.73;6.67;;;;;;;-2.29;88.79;102255.05;123087;1102;105514;-78
2022/12/05 02:08:11;;;;;;;18.37;6.53;;;;;;;-2.30;87.92;102255.78;123060;1102;104323;-77
2022/12/05 02:10:45;;;;;;;17.47;6.27;;;;;;;-2.31;88.82;102253.94;123295;1102;104293;-79
2022/12/05 02:13:31;;;;;;;19.10;6.47;;;;;;;-2.31;87.85;102246.22;123154;1102;104402;-78
2022/12/05 02:16:10;;;;;;;21.43;6.83;;;;;;;-2.34;88.71;102240.73;123163;1102;104232;-79
2022/12/05 02:18:57;;;;;;;16.20;6.53;;;;;;;-2.35;88.29;102252.68;123192;1101;104460;-78
2022/12/05 02:21:58;;;;;;;16.07;6.90;;;;;;;-2.36;87.56;102248.27;123108;1102;104249;-78
2022/12/05 02:25:01;;;;;;;21.50;6.60;;;;;;;-2.32;88.02;102244.41;123071;1102;104258;-78
2022/12/05 02:27:59;;;;;;;16.33;6.77;;;;;;;-2.29;88.38;102252.48;123080;1102;104249;-79
2022/12/05 02:30:38;;;;;;;19.10;6.60;;;;;;;-2.31;87.78;102246.22;123152;1102;104434;-78
2022/12/05 02:33:17;;;;;;;19.70;7.05;;;;;;;-2.33;88.77;102244.23;123115;1102;104665;-78
2022/12/05 02:35:55;;;;;;;17.23;6.67;;;;;;;-2.37;88.66;102230.09;123005;1102;104303;-78
2022/12/05 02:38:32;;;;;;;19.07;7.10;;;;;;;-2.36;88.11;102245.69;123144;1102;104219;-78
2022/12/05 02:41:12;;;;;;;20.33;6.83;;;;;;;-2.36;88.75;102235.41;123208;1102;104367;-78
2022/12/05 02:43:50;;;;;;;17.53;6.57;;;;;;;-2.37;88.47;102237.80;123140;1102;104364;-78
2022/12/05 02:46:25;;;;;;;22.30;7.80;;;;;;;-2.37;88.57;102233.59;123155;1102;104411;-77
2022/12/05 02:49:01;;;;;;;17.67;6.90;;;;;;;-2.37;88.86;102236.17;123078;1102;104361;-78
2022/12/05 02:51:36;;;;;;;17.57;6.97;;;;;;;-2.34;89.12;102233.02;123098;1102;104264;-77
2022/12/05 02:54:10;;;;;;;18.03;6.60;;;;;;;-2.33;88.93;102234.86;123101;1102;104245;-78
2022/12/05 02:56:43;;;;;;;21.87;7.43;;;;;;;-2.32;88.86;102234.13;123091;1101;104226;-77
2022/12/05 02:59:15;;;;;;;17.73;7.40;;;;;;;-2.30;88.80;102239.45;123213;1102;104280;-77
2022/12/05 03:01:48;;;;;;;19.93;6.90;;;;;;;-2.29;88.51;102238.69;123086;1102;104399;-78
2022/12/05 03:04:21;;;;;;;17.60;7.20;;;;;;;-2.30;88.23;102239.45;123114;1102;104306;-78
2022/12/05 03:06:57;;;;;;;20.00;8.30;;;;;;;-2.29;88.52;102247.34;123096;1102;104370;-77
2022/12/05 03:09:34;;;;;;;19.20;6.77;;;;;;;-2.27;89.44;102250.98;123133;1102;104351;-78
2022/12/05 03:12:11;;;;;;;21.67;7.43;;;;;;;-2.24;88.66;102245.30;123179;1102;104348;-78
2022/12/05 03:14:45;;;;;;;17.57;7.40;;;;;;;-2.22;89.11;102255.00;123028;1102;104230;-78
2022/12/05 03:17:22;;;;;;;24.73;7.80;;;;;;;-2.18;89.87;102252.05;123138;1102;104281;-78
2022/12/05 03:19:57;;;;;;;20.80;8.37;;;;;;;-2.14;89.42;102254.97;123054;1102;104245;-78
2022/12/05 03:22:32;;;;;;;20.20;8.20;;;;;;;-2.13;89.20;102254.24;123076;1102;104380;-78
2022/12/05 03:25:04;;;;;;;22.35;8.25;;;;;;;-2.13;88.33;102250.00;123149;1101;104264;-78
2022/12/05 03:27:47;;;;;;;20.10;8.37;;;;;;;-2.13;88.68;102259.39;123402;1102;108004;-78
2022/12/05 03:30:20;;;;;;;22.17;8.30;;;;;;;-2.12;89.85;102258.62;123199;1102;104648;-78
2022/12/05 03:33:02;;;;;;;17.87;7.87;;;;;;;-2.13;89.96;102257.72;123133;1102;104264;-78
2022/12/05 03:35:42;;;;;;;18.70;7.20;;;;;;;-2.12;89.60;102261.20;123141;1102;104351;-78
2022/12/05 03:38:16;;;;;;;19.40;7.95;;;;;;;-2.15;88.97;102250.55;123058;1102;117886;-78
2022/12/05 03:40:53;;;;;;;20.60;8.80;;;;;;;-2.13;89.00;102251.67;123094;1102;104280;-78
2022/12/05 03:43:33;;;;;;;17.87;7.90;;;;;;;-2.13;90.03;102239.71;123057;1102;104277;-77
2022/12/05 03:46:08;;;;;;;22.90;8.63;;;;;;;-2.13;89.21;102239.71;123129;1102;104351;-78
2022/12/05 03:48:47;;;;;;;17.10;8.20;;;;;;;-2.11;90.00;102242.46;123111;1102;104373;-77
2022/12/05 03:51:23;;;;;;;16.70;7.43;;;;;;;-2.09;89.59;102241.88;123127;1102;104284;-78
2022/12/05 03:54:00;;;;;;;20.23;7.67;;;;;;;-2.10;90.16;102239.13;123124;1102;104277;-78
2022/12/05 03:56:35;;;;;;;18.33;7.03;;;;;;;-2.10;90.46;102240.06;123147;1102;104367;-78
2022/12/05 03:59:14;;;;;;;16.30;6.83;;;;;;;-2.10;90.03;102234.92;123115;1102;104321;-78
2022/12/05 04:01:48;;;;;;;17.53;6.67;;;;;;;-2.11;89.55;102245.03;123153;1102;104322;-78
2022/12/05 04:04:27;;;;;;;19.10;6.93;;;;;;;-2.12;90.11;102238.98;123107;1102;104252;-78
2022/12/05 04:07:02;;;;;;;16.63;6.43;;;;;;;-2.13;89.27;102241.38;123090;1102;104682;-79
2022/12/05 04:09:37;;;;;;;16.40;7.13;;;;;;;-2.14;90.00;102236.97;123111;1102;104251;-78
2022/12/05 04:12:12;;;;;;;15.67;6.43;;;;;;;-2.14;90.21;102242.11;123039;1102;104293;-78
2022/12/05 04:14:47;;;;;;;15.33;6.23;;;;;;;-2.16;89.46;102234.22;123104;1102;104222;-78
2022/12/05 04:17:30;;;;;;;17.30;7.50;;;;;;;-2.18;89.25;102239.19;123091;1102;104382;-78
2022/12/05 04:22:53;;;;;;;17.80;7.83;;;;;;;-2.16;89.42;102241.94;123124;1102;104271;-79
2022/12/05 04:25:35;;;;;;;19.17;8.00;;;;;;;-2.16;89.01;102241.94;123081;1102;104303;-78
2022/12/05 04:28:20;;;;;;;16.00;6.57;;;;;;;-2.16;89.43;102244.51;123066;1102;104350;-78
2022/12/05 04:31:01;;;;;;;16.93;7.30;;;;;;;-2.19;89.71;102245.06;123207;1102;104345;-78
2022/12/05 04:33:39;;;;;;;16.90;6.40;;;;;;;-2.18;90.32;102244.33;123125;1102;104182;-78
2022/12/05 04:36:16;;;;;;;21.77;7.17;;;;;;;-2.17;90.25;102247.81;123099;1102;104284;-79
2022/12/05 04:38:51;;;;;;;18.33;7.03;;;;;;;-2.18;90.04;102246.91;123114;1102;104337;-78
2022/12/05 04:41:26;;;;;;;16.83;6.63;;;;;;;-2.18;90.17;102251.14;123098;1102;104258;-78
2022/12/05 04:44:01;;;;;;;19.63;8.00;;;;;;;-2.19;90.23;102249.30;123135;1102;104341;-78
2022/12/05 04:46:33;;;;;;;19.33;7.50;;;;;;;-2.19;89.74;102250.20;123096;1102;104306;-78
2022/12/05 04:49:10;;;;;;;19.87;8.07;;;;;;;-2.15;89.71;102250.55;123114;1102;104379;-78
2022/12/05 04:51:43;;;;;;;18.93;7.90;;;;;;;-2.13;90.10;102249.09;123145;1102;104281;-78
2022/12/05 04:54:18;;;;;;;21.80;8.50;;;;;;;-2.13;90.30;102246.53;123116;1102;104758;-78
2022/12/05 04:56:52;;;;;;;15.70;6.77;;;;;;;-2.15;90.21;102241.20;123243;1102;104389;-79
2022/12/05 04:59:21;;;;;;;;;;;;;;;-2.15;90.54;102245.41;123271;1102;104227;-78
2022/12/05 05:01:57;;;;;;;17.07;7.10;;;;;;;-2.14;89.71;102239.54;123167;1102;104360;-79
2022/12/05 05:04:33;;;;;;;17.97;6.70;;;;;;;-2.14;90.09;102239.54;123205;1102;104376;-79
2022/12/05 05:07:09;;;;;;;18.83;7.73;;;;;;;-2.14;90.70;102247.25;123323;1102;104255;-79
2022/12/05 05:09:41;;;;;;;18.60;6.93;;;;;;;-2.13;89.15;102233.66;123237;1102;104357;-78
2022/12/05 05:12:15;;;;;;;18.63;8.27;;;;;;;-2.13;90.55;102233.66;123132;1102;104363;-78
2022/12/05 05:14:46;;;;;;;18.90;7.95;;;;;;;-2.12;89.75;102230.33;123303;1102;104319;-78
2022/12/05 05:17:17;;;;;;;22.43;7.87;;;;;;;-2.12;90.36;102226.13;123260;1102;104210;-78
2022/12/05 05:19:49;;;;;;;21.83;7.60;;;;;;;-2.11;90.78;102235.65;123315;1102;104290;-79
2022/12/05 05:22:20;;;;;;;20.17;8.07;;;;;;;-2.11;90.57;102230.50;123260;1102;104405;-78
2022/12/05 05:24:51;;;;;;;21.77;8.00;;;;;;;-2.11;89.34;102230.50;123062;1102;104178;-78
2022/12/05 05:27:22;;;;;;;21.10;7.73;;;;;;;-2.11;90.10;102238.22;123135;1102;104619;-78
2022/12/05 05:29:53;;;;;;;19.93;8.20;;;;;;;-2.16;90.59;102244.51;123252;1102;104350;-79
2022/12/05 05:32:24;;;;;;;17.37;7.50;;;;;;;-2.15;90.05;102245.41;123638;1102;104248;-79
2022/12/05 05:34:55;;;;;;;21.10;8.20;;;;;;;-2.16;89.61;102244.51;123742;1102;103526;-76
2022/12/05 05:37:26;;;;;;;21.03;7.30;;;;;;;-2.18;89.91;102241.77;123453;1102;104354;-79
2022/12/05 05:39:57;;;;;;;19.57;7.57;;;;;;;-2.18;90.70;102244.33;123371;1102;104172;-77
2022/12/05 05:42:29;;;;;;;20.20;8.77;;;;;;;-2.20;90.45;102238.11;123476;1102;104226;-76
2022/12/05 05:45:00;;;;;;;21.00;7.50;;;;;;;-2.20;89.66;102247.45;123595;1102;104274;-77
2022/12/05 05:47:31;;;;;;;22.85;7.85;;;;;;;-2.19;90.77;102245.06;123469;1102;104370;-76
2022/12/05 05:50:02;;;;;;;22.03;8.73;;;;;;;-2.18;90.40;102249.48;123520;1102;104837;-76
2022/12/05 05:52:36;;;;;;;22.83;8.83;;;;;;;-2.18;90.62;102251.14;123499;1101;104249;-76
2022/12/05 05:55:09;;;;;;;21.10;8.20;;;;;;;-2.18;91.10;102249.48;123316;1102;104284;-76
2022/12/05 05:57:40;;;;;;;22.30;8.30;;;;;;;-2.15;90.96;102250.55;123421;1102;104302;-77
2022/12/05 06:00:14;;;;;;;20.10;8.00;;;;;;;-2.15;91.12;102255.70;123370;1102;104389;-76
2022/12/05 06:02:45;;;;;;;21.15;9.15;;;;;;;-2.14;90.53;102252.40;123293;1102;104281;-77
2022/12/05 06:05:17;;;;;;;19.60;7.67;;;;;;;-2.13;90.07;102255.14;123655;1102;104220;-78
2022/12/05 06:07:48;;;;;;;21.53;8.07;;;;;;;-2.14;89.73;102263.59;123676;1102;104268;-78
2022/12/05 06:10:21;;;;;;;23.60;9.13;;;;;;;-2.09;90.36;102256.41;123901;1102;104201;-78
2022/12/05 06:12:52;;;;;;;19.70;8.17;;;;;;;-2.06;90.41;102255.09;123697;1102;104383;-76
2022/12/05 06:15:23;;;;;;;27.67;9.63;;;;;;;-2.02;91.13;102261.52;123592;1102;104255;-76
2022/12/05 06:17:56;;;;;;;21.30;8.53;;;;;;;-1.99;90.66;102260.20;123995;1102;104242;-77
2022/12/05 06:20:27;;;;;;;22.50;9.03;;;;;;;-1.98;90.82;102258.53;123887;1102;105091;-76
2022/12/05 06:22:58;;;;;;;24.20;9.60;;;;;;;-1.98;90.06;102258.53;123890;1102;104172;-77
2022/12/05 06:25:30;;;;;;;23.07;9.33;;;;;;;-1.99;89.99;102264.44;124038;1102;104272;-77
2022/12/05 06:28:01;;;;;;;22.95;8.70;;;;;;;-1.99;90.42;102254.15;124194;1102;104246;-77
2022/12/05 06:30:32;;;;;;;23.90;8.95;;;;;;;-1.97;90.32;102249.18;124051;1102;104270;-76
2022/12/05 06:33:03;;;;;;;21.47;9.10;;;;;;;-1.96;89.77;102253.56;124030;1101;104220;-76
2022/12/05 06:35:46;;;;;;;22.27;8.60;;;;;;;-1.93;91.13;102247.13;124287;1102;104179;-78
2022/12/05 06:38:26;;;;;;;23.20;9.13;;;;;;;-1.93;90.75;102246.19;126327;1101;102326;-77
2022/12/05 06:41:20;;;;;;;21.37;9.60;;;;;;;-1.92;90.99;102254.09;126225;1101;101764;-77
2022/12/05 06:43:57;;;;;;;22.17;8.13;;;;;;;-1.91;90.70;102253.36;126001;1102;102195;-77
2022/12/05 06:46:28;;;;;;;22.60;9.78;;;;;;;-1.90;90.13;102251.69;126024;1102;101416;-79
2022/12/05 06:49:00;;;;;;;21.83;9.17;;;;;;;-1.92;91.04;102250.61;126222;1102;101939;-78
2022/12/05 06:51:31;;;;;;;23.07;9.97;;;;;;;-1.92;90.57;102260.90;126271;1101;102861;-77
2022/12/05 06:54:02;;;;;;;23.23;8.80;;;;;;;-1.94;89.69;102258.16;125918;1101;102172;-79
2022/12/05 06:56:33;;;;;;;19.30;8.40;;;;;;;-1.96;90.66;102263.85;124426;1102;104321;-78
2022/12/05 06:59:05;;;;;;;21.97;8.30;;;;;;;-1.95;90.88;102258.88;124812;1102;104275;-80
2022/12/05 07:01:39;;;;;;;18.97;7.60;;;;;;;-1.94;90.72;102262.39;124701;1102;101916;-79
2022/12/05 07:04:14;;;;;;;18.90;7.75;;;;;;;-1.91;89.92;102268.80;124941;1102;104316;-78
2022/12/05 07:06:47;;;;;;;18.27;7.70;;;;;;;-1.88;91.06;102266.57;125099;1102;104198;-78
2022/12/05 07:09:44;;;;;;;20.95;8.43;;;;;;;-1.84;90.62;102255.89;124887;1102;102264;-80
2022/12/05 07:12:18;;;;;;;19.07;7.40;;;;;;;-1.78;90.05;102263.38;125003;1102;112061;-80
2022/12/05 07:14:50;;;;;;;24.82;8.53;;;;;;;-1.76;90.11;102263.55;124824;1102;102919;-77
2022/12/05 07:17:24;;;;;;;23.77;9.03;;;;;;;-1.74;90.07;102262.98;124643;1102;102251;-77
2022/12/05 07:19:56;;;;;;;18.40;8.90;;;;;;;-1.69;89.98;102256.69;124612;1102;102559;-77
2022/12/05 07:22:27;;;;;;;23.00;9.00;;;;;;;-1.62;89.96;102263.47;124726;1102;104270;-78
2022/12/05 07:24:59;;;;;;;22.73;9.93;;;;;;;-1.57;89.70;102258.80;124668;1102;104275;-80
2022/12/05 07:27:30;;;;;;;28.77;10.73;;;;;;;-1.55;89.62;102259.91;124740;1102;103020;-79
2022/12/05 07:30:04;;;;;;;23.10;9.70;;;;;;;-1.57;89.38;102259.74;124837;1102;103066;-79
2022/12/05 07:32:36;;;;;;;22.50;8.65;;;;;;;-1.57;89.47;102267.47;124559;1102;104677;-80
2022/12/05 07:35:12;;;;;;;23.17;9.27;;;;;;;-1.58;89.65;102264.72;124835;1102;104259;-79
2022/12/05 07:37:45;;;;;;;20.10;8.57;;;;;;;-1.58;90.04;102260.48;124961;1102;104217;-78
2022/12/05 07:40:22;;;;;;;20.13;8.30;;;;;;;-1.58;89.82;102257.90;124827;1102;104198;-79
2022/12/05 07:42:54;;;;;;;18.50;7.60;;;;;;;-1.57;89.31;102264.89;124787;1102;118729;-79
2022/12/05 07:45:25;;;;;;;16.53;6.77;;;;;;;-1.53;90.10;102253.27;124914;1102;104210;-78
2022/12/05 07:47:58;;;;;;;18.60;7.60;;;;;;;-1.49;89.81;102261.51;124749;1103;102418;-79
2022/12/05 07:50:30;;;;;;;23.73;8.37;;;;;;;-1.47;89.22;102265.16;124784;1102;103480;-79
2022/12/05 07:53:03;;;;;;;19.63;8.00;;;;;;;-1.46;89.59;102266.09;124660;1102;104386;-79
2022/12/05 07:55:37;;;;;;;19.57;7.67;;;;;;;-1.46;89.23;102267.00;124620;1102;104758;-79
2022/12/05 07:58:09;;;;;;;18.98;6.95;;;;;;;-1.47;90.29;102265.16;124891;1102;102866;-78
2022/12/05 08:00:42;;;;;;;19.30;6.67;;;;;;;-1.45;90.28;102270.48;125106;1102;104280;-79
2022/12/05 08:03:15;;;;;;;18.00;6.23;;;;;;;-1.48;89.68;102260.77;124876;1102;104239;-78
2022/12/05 08:05:51;;;;;;;15.85;6.40;;;;;;;-1.53;89.16;102269.62;124745;1102;102174;-79
2022/12/05 08:08:34;;;;;;;18.13;6.70;;;;;;;-1.55;89.94;102271.12;124890;1102;104201;-79
2022/12/05 08:11:09;;;;;;;16.03;6.40;;;;;;;-1.50;89.64;102277.69;124776;1102;104175;-79
2022/12/05 08:13:41;;;;;;;17.33;7.13;;;;;;;-1.46;90.40;102276.39;126082;1102;102428;-78
2022/12/05 08:16:14;;;;;;;17.90;7.80;;;;;;;-1.47;89.60;102278.03;126066;1102;102802;-79
2022/12/05 08:18:47;;;;;;;18.70;7.77;;;;;;;-1.43;90.52;102278.38;126041;1101;102856;-78
2022/12/05 08:21:19;;;;;;;23.60;8.90;;;;;;;-1.37;90.35;102273.91;126098;1101;102797;-79
2022/12/05 08:23:52;;;;;;;;;;;;;;;-1.35;90.38;102263.05;125948;1102;102764;-78
2022/12/05 08:26:25;;;;;;;23.20;8.10;;;;;;;-1.34;89.70;102266.53;125960;1102;103126;-78
2022/12/05 08:29:14;;;;;;;20.77;8.00;;;;;;;-1.35;90.30;102251.84;126095;1102;102836;-78
2022/12/05 08:31:53;;;;;;;22.27;8.57;;;;;;;-1.34;90.28;102251.08;126065;1100;102710;-78
2022/12/05 08:34:25;;;;;;;19.53;8.13;;;;;;;-1.32;89.78;102253.09;126120;1101;102811;-79
2022/12/05 08:36:56;;;;;;;18.83;7.37;;;;;;;-1.34;89.96;102240.78;126091;1102;101920;-79
2022/12/05 08:39:28;;;;;;;18.40;6.80;;;;;;;-1.37;89.97;102246.52;126184;1102;101930;-78
2022/12/05 08:41:59;;;;;;;18.17;7.43;;;;;;;-1.42;88.72;102254.47;126079;1102;102101;-77
2022/12/05 08:44:30;;;;;;;17.13;7.23;;;;;;;-1.42;89.76;102244.17;126102;1101;103213;-77
2022/12/05 08:47:02;;;;;;;15.13;6.77;;;;;;;-1.41;89.56;102248.59;125224;1102;104393;-78
2022/12/05 08:49:34;;;;;;;18.93;7.93;;;;;;;-1.34;89.96;102253.66;124439;1102;103109;-78
2022/12/05 08:52:06;;;;;;;17.40;7.10;;;;;;;-1.35;88.91;102259.57;124794;1102;104197;-77
2022/12/05 08:54:40;;;;;;;19.60;7.93;;;;;;;-1.36;89.05;102253.48;124648;1101;104274;-76
2022/12/05 08:57:15;;;;;;;18.07;6.90;;;;;;;-1.35;89.17;102259.57;124661;1102;104204;-76
2022/12/05 08:59:47;;;;;;;17.13;6.83;;;;;;;-1.32;88.89;102244.46;124580;1102;104181;-77
2022/12/05 09:02:30;;;;;;;17.60;7.33;;;;;;;-1.32;89.59;102241.89;124746;1102;104204;-78
2022/12/05 09:05:08;;;;;;;18.57;6.30;;;;;;;-1.33;89.73;102238.38;124671;1101;104232;-77
2022/12/05 09:07:54;;;;;;;18.30;7.03;;;;;;;-1.34;89.41;102245.92;124556;1102;104173;-78
2022/12/05 09:10:26;;;;;;;19.43;7.50;;;;;;;-1.37;89.25;102240.44;124702;1102;104278;-78
2022/12/05 09:12:59;;;;;;;17.63;6.63;;;;;;;-1.39;88.89;102242.84;124566;1102;104801;-77
2022/12/05 09:15:30;;;;;;;17.57;7.10;;;;;;;-1.42;89.39;102242.50;124683;1102;102105;-79
2022/12/05 09:18:02;;;;;;;17.20;7.03;;;;;;;-1.45;89.06;102231.86;124565;1102;104236;-77
2022/12/05 09:20:39;;;;;;;15.67;6.80;;;;;;;-1.44;89.41;102223.40;124544;1102;104246;-77
2022/12/05 09:23:13;;;;;;;17.63;7.07;;;;;;;-1.40;89.26;102214.34;124622;1102;104482;-76
2022/12/05 09:25:53;;;;;;;19.93;6.90;;;;;;;-1.43;89.38;102209.78;124543;1100;105075;-77
2022/12/05 09:28:28;;;;;;;16.70;7.70;;;;;;;-1.48;88.84;102206.70;124525;1102;103112;-75
2022/12/05 09:31:11;;;;;;;20.73;7.37;;;;;;;-1.49;88.54;102211.69;124630;1102;102297;-75
2022/12/05 09:33:47;;;;;;;18.33;7.47;;;;;;;-1.54;89.27;102210.23;124522;1102;104296;-75
2022/12/05 09:36:24;;;;;;;17.43;7.57;;;;;;;-1.54;88.81;102203.45;124577;1102;104259;-76
2022/12/05 09:38:59;;;;;;;19.73;8.17;;;;;;;-1.52;89.14;102199.37;124330;1102;104248;-76
2022/12/05 09:42:07;;;;;;;23.13;8.50;;;;;;;-1.52;89.27;102196.80;124374;1102;104335;-76
2022/12/05 09:44:53;;;;;;;16.60;7.23;;;;;;;-1.54;88.55;102200.88;125891;1102;102808;-75
2022/12/05 09:47:33;;;;;;;19.07;7.60;;;;;;;-1.54;88.85;102200.88;126041;1101;102705;-75
2022/12/05 09:50:18;;;;;;;17.53;7.17;;;;;;;-1.48;89.77;102195.47;125959;1102;102665;-75
2022/12/05 09:53:04;;;;;;;21.13;7.60;;;;;;;-1.45;88.81;102194.17;126106;1102;101917;-74
2022/12/05 09:55:47;;;;;;;23.03;8.33;;;;;;;-1.41;89.53;102186.78;126251;1101;108400;-75
2022/12/05 09:58:40;;;;;;;19.73;7.20;;;;;;;-1.34;89.11;102182.48;126354;1101;101913;-75
2022/12/05 10:01:36;;;;;;;17.90;7.00;;;;;;;-1.25;89.67;102185.13;126255;1101;102546;-75
2022/12/05 10:04:22;;;;;;;17.30;7.47;;;;;;;-1.18;89.62;102181.59;125895;1102;102603;-75
2022/12/05 10:07:02;;;;;;;20.47;8.00;;;;;;;-1.14;89.42;102173.42;126178;1101;103181;-76
2022/12/05 10:09:54;;;;;;;21.33;8.20;;;;;;;-1.06;90.10;102171.69;126199;1101;101492;-76
2022/12/05 10:12:54;;;;;;;16.03;7.17;;;;;;;-1.00;88.90;102167.20;126117;1102;102341;-75
2022/12/05 10:15:35;;;;;;;19.27;7.90;;;;;;;-1.05;88.44;102163.22;126171;1101;102569;-76
2022/12/05 10:18:15;;;;;;;20.50;7.47;;;;;;;-1.10;88.90;102165.30;126194;1101;101381;-75
2022/12/05 10:20:52;;;;;;;22.77;8.07;;;;;;;-1.12;88.57;102162.55;126058;1101;102027;-76
2022/12/05 10:23:28;;;;;;;17.57;6.67;;;;;;;-1.17;88.54;102156.00;126013;1102;101799;-75
2022/12/05 10:26:03;;;;;;;14.67;6.00;;;;;;;-1.20;88.43;102155.66;125953;1101;102669;-75
2022/12/05 10:28:40;;;;;;;16.17;6.27;;;;;;;-1.19;88.47;102154.89;125755;1102;103154;-75
2022/12/05 10:31:19;;;;;;;16.87;6.47;;;;;;;-1.17;89.14;102157.64;125813;1102;102547;-75
2022/12/05 10:33:57;;;;;;;16.00;6.87;;;;;;;-1.16;89.55;102152.65;125859;1102;104397;-75
2022/12/05 10:36:32;;;;;;;18.50;7.70;;;;;;;-1.12;89.10;102147.09;125860;1102;108615;-75
2022/12/05 10:39:05;;;;;;;16.97;7.47;;;;;;;-1.10;89.75;102142.11;125954;1102;102630;-73
2022/12/05 10:41:37;;;;;;;17.57;6.70;;;;;;;-1.09;88.64;102149.10;125792;1100;102743;-75
2022/12/05 10:44:10;;;;;;;15.87;6.50;;;;;;;-1.10;88.92;102140.44;125836;1101;102907;-75
2022/12/05 10:46:42;;;;;;;17.90;6.67;;;;;;;-1.06;88.96;102141.70;125951;1102;118609;-73
2022/12/05 10:49:14;;;;;;;14.80;6.53;;;;;;;-1.09;88.17;102133.64;125831;1102;103050;-74
2022/12/05 10:51:50;;;;;;;18.73;6.43;;;;;;;-1.10;88.64;102135.28;125891;1102;101965;-74
2022/12/05 10:54:27;;;;;;;15.43;6.40;;;;;;;-1.15;87.96;102127.83;126109;1101;102285;-74
2022/12/05 10:56:59;;;;;;;17.00;6.87;;;;;;;-1.17;88.58;102132.81;125707;1102;102722;-74
2022/12/05 10:59:47;;;;;;;18.07;7.97;;;;;;;-1.14;88.73;102127.99;125666;1102;103946;-73
2022/12/05 11:02:53;;;;;;;16.60;7.53;;;;;;;-1.08;89.38;102132.88;125656;1102;102841;-75
2022/12/05 11:05:41;;;;;;;15.23;6.70;;;;;;;-1.00;88.59;102125.97;125918;1102;102916;-74
2022/12/05 11:08:23;;;;;;;18.87;7.63;;;;;;;-0.99;88.44;102131.30;125882;1102;102523;-75
2022/12/05 11:11:07;;;;;;;17.33;7.03;;;;;;;-0.98;88.53;102125.41;125710;1102;103971;-75
2022/12/05 11:13:53;;;;;;;19.30;7.55;;;;;;;-0.96;88.98;102118.73;125909;1102;102765;-74
2022/12/05 11:16:31;;;;;;;17.97;7.37;;;;;;;-0.94;88.11;102121.48;125851;1102;102640;-74
2022/12/05 11:19:25;;;;;;;15.97;6.70;;;;;;;-0.92;88.26;102114.81;125896;1102;101823;-74
2022/12/05 11:21:57;;;;;;;17.57;7.13;;;;;;;-0.93;89.06;102113.91;125826;1102;102207;-74
2022/12/05 11:24:32;;;;;;;15.27;6.80;;;;;;;-0.92;88.79;102110.60;125949;1102;102565;-75
2022/12/05 11:27:21;;;;;;;18.10;7.60;;;;;;;-0.93;87.56;102100.13;125869;1102;103045;-73
2022/12/05 11:30:00;;;;;;;17.53;7.77;;;;;;;-0.90;88.48;102103.03;125864;1102;102328;-74
2022/12/05 11:32:35;;;;;;;17.13;7.40;;;;;;;-0.90;88.22;102095.30;125761;1102;101923;-75
2022/12/05 11:35:19;;;;;;;16.40;7.33;;;;;;;-0.92;87.73;102092.56;125487;1102;102744;-75
2022/12/05 11:37:58;;;;;;;15.60;6.80;;;;;;;-0.94;88.53;102093.14;125737;1102;102010;-75
2022/12/05 11:40:41;;;;;;;18.40;7.30;;;;;;;-0.91;88.38;102096.94;125908;1102;103288;-76
2022/12/05 11:43:36;;;;;;;20.83;8.10;;;;;;;-0.94;87.65;102095.71;125896;1101;102245;-75